Time;durP1;ratioP1;P1;durP2;ratioP2;P2;SDS_P1;SDS_P2;PMS_P1;PMS_P2;Temp;Humidity;BMP_temperature;BMP_pressure;BME280_temperature;BME280_humidity;BME280_pressure;Samples;Min_cycle;Max_cycle;Signal;HPM_P1;HPM_P2
2022/06/27 00:02:01;;;;;;;2.70;1.33;;;20.60;99.90;;;;;;4975122;28;20180;-82
2022/06/27 00:04:26;;;;;;;4.43;1.53;;;20.60;81.90;;;;;;4975196;28;20202;-82
2022/06/27 00:06:52;;;;;;;2.93;1.57;;;20.50;89.20;;;;;;4974770;28;20256;-82
2022/06/27 00:09:17;;;;;;;2.67;1.90;;;20.50;99.90;;;;;;4974857;28;20225;-81
2022/06/27 00:11:43;;;;;;;1.80;1.00;;;20.50;81.00;;;;;;4974987;28;20205;-81
2022/06/27 00:14:09;;;;;;;2.27;1.50;;;20.50;58.60;;;;;;4975040;28;20681;-81
2022/06/27 00:16:34;;;;;;;2.70;1.67;;;20.40;24.10;;;;;;4974986;28;20367;-81
2022/06/27 00:19:03;;;;;;;2.17;1.43;;;20.40;58.10;;;;;;4974788;28;20180;-81
2022/06/27 00:21:28;;;;;;;2.80;1.77;;;20.40;92.70;;;;;;4974375;28;20197;-81
2022/06/27 00:23:54;;;;;;;2.50;1.40;;;20.40;51.60;;;;;;4973615;28;20476;-81
2022/06/27 00:26:19;;;;;;;1.50;1.37;;;20.40;56.00;;;;;;4974763;28;20588;-81
2022/06/27 00:28:45;;;;;;;2.53;1.63;;;20.40;92.10;;;;;;4974682;28;20174;-81
2022/06/27 00:31:13;;;;;;;2.43;1.57;;;20.40;99.90;;;;;;4973501;28;20172;-81
2022/06/27 00:33:39;;;;;;;2.43;1.30;;;20.30;37.00;;;;;;4973435;28;20185;-81
2022/06/27 00:36:05;;;;;;;3.27;1.37;;;20.30;92.20;;;;;;4974137;28;20466;-81
2022/06/27 00:38:33;;;;;;;3.00;1.40;;;20.30;40.10;;;;;;4974672;28;20195;-81
2022/06/27 00:40:59;;;;;;;2.20;2.00;;;20.30;75.40;;;;;;4974508;28;20466;-81
2022/06/27 00:43:24;;;;;;;1.90;1.30;;;20.30;98.10;;;;;;4974560;28;20424;-82
2022/06/27 00:45:50;;;;;;;2.00;1.60;;;20.30;96.40;;;;;;4974465;28;20239;-82
2022/06/27 00:48:15;;;;;;;3.87;1.87;;;20.30;99.90;;;;;;4973154;28;20561;-81
2022/06/27 00:50:41;;;;;;;2.60;1.37;;;20.20;66.40;;;;;;4974167;28;20184;-81
2022/06/27 00:53:10;;;;;;;2.70;1.70;;;20.20;83.20;;;;;;4974314;28;20213;-81
2022/06/27 00:55:35;;;;;;;2.40;1.33;;;20.20;73.80;;;;;;4974433;28;20260;-81
2022/06/27 00:58:01;;;;;;;1.73;1.30;;;20.20;99.90;;;;;;4974355;28;20946;-81
2022/06/27 01:00:27;;;;;;;3.17;1.30;;;20.10;99.90;;;;;;4973054;28;20176;-81
2022/06/27 01:02:53;;;;;;;2.87;1.50;;;20.10;99.90;;;;;;4974246;28;20186;-81
2022/06/27 01:05:19;;;;;;;3.53;1.50;;;20.20;99.90;;;;;;4973986;28;20944;-81
2022/06/27 01:07:44;;;;;;;2.40;1.63;;;20.10;99.90;;;;;;4974180;28;20267;-81
2022/06/27 01:10:10;;;;;;;2.67;1.70;;;20.10;99.90;;;;;;4974129;28;20555;-81
2022/06/27 01:12:40;;;;;;;2.93;1.67;;;20.10;99.90;;;;;;4974191;28;20218;-81
2022/06/27 01:15:06;;;;;;;2.90;1.70;;;20.10;99.90;;;;;;4974123;28;20191;-82
2022/06/27 01:17:33;;;;;;;3.57;1.50;;;20.10;99.90;;;;;;4974089;28;20773;-82
2022/06/27 01:19:59;;;;;;;3.50;1.53;;;20.10;99.90;;;;;;4972882;28;20421;-82
2022/06/27 01:22:27;;;;;;;2.67;1.50;;;20.00;99.90;;;;;;4972565;28;20428;-82
2022/06/27 01:24:53;;;;;;;2.27;1.50;;;20.00;99.90;;;;;;4974132;28;20173;-82
2022/06/27 01:27:18;;;;;;;3.03;1.50;;;20.00;99.90;;;;;;4973885;28;20429;-82
2022/06/27 01:29:44;;;;;;;3.50;1.80;;;20.00;99.90;;;;;;4974052;28;20168;-81
2022/06/27 01:32:09;;;;;;;3.27;1.43;;;20.00;99.90;;;;;;4974874;28;20208;-81
2022/06/27 01:34:36;;;;;;;2.23;1.63;;;20.00;99.90;;;;;;4977942;28;20180;-81
2022/06/27 01:37:03;;;;;;;3.30;2.53;;;20.00;99.90;;;;;;4977628;28;20254;-81
2022/06/27 01:39:29;;;;;;;3.37;1.60;;;20.00;99.90;;;;;;4976468;28;20455;-82
2022/06/27 01:41:57;;;;;;;2.10;1.50;;;20.00;99.90;;;;;;4977795;28;20423;-81
2022/06/27 01:44:26;;;;;;;2.33;1.70;;;20.10;99.90;;;;;;4977729;28;20172;-81
2022/06/27 01:46:54;;;;;;;2.80;1.80;;;20.00;99.90;;;;;;4977747;28;20422;-81
2022/06/27 01:49:20;;;;;;;3.43;2.00;;;20.00;99.90;;;;;;4977644;28;20910;-82
2022/06/27 01:51:49;;;;;;;3.30;1.50;;;19.90;99.90;;;;;;4977137;28;20463;-82
2022/06/27 01:54:19;;;;;;;2.80;1.60;;;19.90;99.90;;;;;;4977537;28;20180;-82
2022/06/27 01:56:46;;;;;;;2.03;1.80;;;19.90;99.90;;;;;;4977506;28;20436;-80
2022/06/27 01:59:13;;;;;;;2.40;1.90;;;19.90;99.90;;;;;;4977510;28;20961;-80
2022/06/27 02:01:40;;;;;;;2.70;1.40;;;19.90;99.90;;;;;;4977372;28;20951;-81
2022/06/27 02:04:06;;;;;;;2.43;2.07;;;20.00;99.90;;;;;;4976051;28;21008;-79
2022/06/27 02:06:31;;;;;;;3.77;1.93;;;20.00;99.90;;;;;;4977052;28;20428;-80
2022/06/27 02:09:02;;;;;;;1.97;1.23;;;20.10;99.90;;;;;;4977045;28;20215;-80
2022/06/27 02:11:27;;;;;;;2.20;1.53;;;20.10;99.90;;;;;;4977181;28;20172;-80
2022/06/27 02:13:55;;;;;;;1.77;1.10;;;20.10;99.90;;;;;;4977608;28;20981;-81
2022/06/27 02:16:21;;;;;;;4.10;1.60;;;20.10;99.90;;;;;;4990676;28;20169;-81
2022/06/27 02:18:48;;;;;;;2.27;1.30;;;20.10;99.90;;;;;;4977082;28;20438;-80
2022/06/27 02:21:17;;;;;;;3.00;1.90;;;20.10;99.90;;;;;;4976789;28;20537;-81
2022/06/27 02:23:43;;;;;;;2.60;1.67;;;20.20;99.90;;;;;;4976992;28;20471;-81
2022/06/27 02:26:11;;;;;;;3.73;1.70;;;20.20;99.90;;;;;;4977042;28;20756;-81
2022/06/27 02:28:37;;;;;;;2.27;1.43;;;20.20;99.90;;;;;;4976975;28;20300;-81
2022/06/27 02:31:03;;;;;;;2.03;1.40;;;20.10;99.90;;;;;;4975597;28;20511;-81
2022/06/27 02:33:40;;;;;;;3.63;1.67;;;20.10;99.90;;;;;;4976672;28;20471;-81
2022/06/27 02:36:09;;;;;;;3.00;1.60;;;20.20;99.90;;;;;;4976496;28;20415;-81
2022/06/27 02:38:36;;;;;;;2.13;1.17;;;20.20;99.90;;;;;;4976758;28;20412;-82
2022/06/27 02:41:04;;;;;;;2.03;1.47;;;20.10;99.90;;;;;;4976607;28;20947;-82
2022/06/27 02:43:32;;;;;;;3.00;1.83;;;20.10;97.10;;;;;;4975460;28;20412;-82
2022/06/27 02:45:58;;;;;;;2.40;1.83;;;20.00;99.90;;;;;;4976612;28;20926;-81
2022/06/27 02:48:25;;;;;;;3.10;1.90;;;19.90;99.90;;;;;;4976545;28;20466;-81
2022/06/27 02:50:54;;;;;;;2.67;2.47;;;19.90;99.90;;;;;;4976146;28;20166;-81
2022/06/27 02:53:25;;;;;;;2.80;2.17;;;19.90;99.90;;;;;;4976389;28;20468;-82
2022/06/27 02:55:58;;;;;;;3.80;2.20;;;19.90;99.90;;;;;;4976302;28;20980;-82
2022/06/27 02:58:35;;;;;;;3.20;1.57;;;19.90;99.90;;;;;;4976355;28;20754;-82
2022/06/27 03:01:02;;;;;;;2.50;1.37;;;19.90;99.90;;;;;;4976284;28;20414;-82
2022/06/27 03:03:31;;;;;;;3.67;2.10;;;19.80;99.90;;;;;;4976253;28;20415;-82
2022/06/27 03:06:05;;;;;;;2.97;1.60;;;19.80;99.90;;;;;;4974657;28;20420;-82
2022/06/27 03:08:43;;;;;;;3.77;1.27;;;19.80;99.90;;;;;;4975857;28;20514;-81
2022/06/27 03:11:14;;;;;;;4.20;1.67;;;19.60;99.90;;;;;;4975988;28;20429;-82
2022/06/27 03:13:44;;;;;;;4.13;1.77;;;19.60;99.90;;;;;;4974433;28;20566;-82
2022/06/27 03:16:10;;;;;;;3.77;1.07;;;19.60;99.90;;;;;;4975964;28;20427;-81
2022/06/27 03:18:36;;;;;;;2.40;1.10;;;19.60;99.90;;;;;;4975386;28;20859;-81
2022/06/27 03:21:02;;;;;;;2.33;2.10;;;19.50;99.90;;;;;;4973779;28;20454;-81
2022/06/27 03:23:27;;;;;;;3.20;1.50;;;19.60;99.90;;;;;;4975358;28;20422;-81
2022/06/27 03:25:54;;;;;;;3.50;1.40;;;19.50;99.90;;;;;;4974717;28;20185;-81
2022/06/27 03:28:23;;;;;;;5.50;1.67;;;19.50;99.90;;;;;;4974626;28;20179;-81
2022/06/27 03:30:49;;;;;;;3.00;1.67;;;19.50;99.90;;;;;;4975777;28;20426;-81
2022/06/27 03:33:14;;;;;;;4.67;1.87;;;19.50;99.90;;;;;;4975656;28;20478;-81
2022/06/27 03:35:41;;;;;;;2.30;1.07;;;19.40;99.90;;;;;;4957716;28;21092;-81
2022/06/27 03:38:07;;;;;;;2.30;1.50;;;19.40;99.90;;;;;;4974381;28;20188;-81
2022/06/27 03:40:33;;;;;;;3.23;1.23;;;19.30;99.90;;;;;;4974351;28;20500;-82
2022/06/27 03:42:58;;;;;;;4.60;1.80;;;19.30;99.90;;;;;;4975598;28;20901;-82
2022/06/27 03:45:24;;;;;;;3.40;1.47;;;19.20;99.90;;;;;;4975515;28;20569;-82
2022/06/27 03:47:59;;;;;;;2.67;1.20;;;19.10;99.90;;;;;;4975557;28;20217;-81
2022/06/27 03:50:25;;;;;;;3.40;1.57;;;19.10;99.90;;;;;;4973790;28;20553;-82
2022/06/27 03:52:52;;;;;;;3.93;1.00;;;18.90;99.90;;;;;;4975283;28;20517;-82
2022/06/27 03:55:18;;;;;;;2.93;1.57;;;18.90;99.90;;;;;;4974935;28;20416;-82
2022/06/27 03:57:55;;;;;;;2.20;1.10;;;18.70;99.90;;;;;;4975275;28;20429;-81
2022/06/27 04:00:24;;;;;;;2.63;1.47;;;18.70;99.90;;;;;;4974053;28;20421;-82
2022/06/27 04:02:51;;;;;;;5.23;1.20;;;18.70;99.90;;;;;;4975121;28;20429;-82
2022/06/27 04:05:19;;;;;;;2.30;1.40;;;18.70;99.90;;;;;;4974728;28;20919;-82
2022/06/27 04:07:45;;;;;;;1.97;0.77;;;18.60;99.90;;;;;;4973826;28;20512;-82
2022/06/27 04:10:12;;;;;;;2.00;0.93;;;18.50;99.90;;;;;;4974954;28;20548;-82
2022/06/27 04:12:38;;;;;;;3.07;1.03;;;18.50;99.90;;;;;;4974885;28;20210;-82
2022/06/27 04:15:05;;;;;;;8.43;1.27;;;18.50;99.90;;;;;;4973706;28;20422;-82
2022/06/27 04:17:32;;;;;;;4.43;1.03;;;18.50;99.90;;;;;;4973667;28;20493;-82
2022/06/27 04:19:57;;;;;;;2.70;0.60;;;18.50;99.90;;;;;;4974606;28;20419;-82
2022/06/27 04:22:23;;;;;;;3.07;1.63;;;18.40;99.90;;;;;;4974804;28;20810;-82
2022/06/27 04:24:49;;;;;;;3.10;1.07;;;18.70;99.90;;;;;;4974835;28;20172;-82
2022/06/27 04:27:17;;;;;;;2.03;0.80;;;18.50;99.90;;;;;;4973451;28;20182;-83
2022/06/27 04:29:43;;;;;;;1.73;0.93;;;18.60;99.90;;;;;;4973495;28;20430;-83
2022/06/27 04:32:09;;;;;;;3.10;0.70;;;18.70;99.90;;;;;;4974723;28;20961;-82
2022/06/27 04:34:38;;;;;;;5.63;1.10;;;18.60;99.90;;;;;;4974349;28;20457;-81
2022/06/27 04:37:04;;;;;;;3.60;0.87;;;18.70;99.90;;;;;;4974609;28;20929;-81
2022/06/27 04:39:32;;;;;;;3.00;1.43;;;18.70;99.90;;;;;;4974531;28;20173;-80
2022/06/27 04:41:58;;;;;;;3.63;1.20;;;18.70;99.90;;;;;;4974561;28;20257;-81
2022/06/27 04:44:23;;;;;;;1.77;1.20;;;18.70;99.90;;;;;;4957211;28;20871;-81
2022/06/27 04:46:49;;;;;;;3.50;1.37;;;18.80;99.90;;;;;;4973313;28;20174;-81
2022/06/27 04:49:17;;;;;;;2.30;1.30;;;18.90;99.90;;;;;;4974528;28;20628;-81
2022/06/27 04:51:43;;;;;;;2.87;1.23;;;18.90;99.90;;;;;;4972763;28;20433;-81
2022/06/27 04:54:10;;;;;;;1.77;0.87;;;19.10;99.90;;;;;;4974297;28;20406;-81
2022/06/27 04:56:39;;;;;;;4.03;1.00;;;19.10;99.90;;;;;;4974346;28;20465;-81
2022/06/27 04:59:05;;;;;;;2.50;1.60;;;19.10;99.90;;;;;;4974352;28;20999;-80
2022/06/27 05:01:30;;;;;;;3.77;1.80;;;19.20;99.90;;;;;;4973036;28;20461;-81
2022/06/27 05:03:56;;;;;;;4.00;1.27;;;19.30;99.90;;;;;;4974340;28;20184;-80
2022/06/27 05:06:21;;;;;;;4.63;1.33;;;19.30;99.90;;;;;;4973300;28;20171;-81
2022/06/27 05:08:47;;;;;;;3.47;0.97;;;19.40;99.90;;;;;;4973922;28;20228;-80
2022/06/27 05:11:12;;;;;;;4.40;1.00;;;19.60;99.90;;;;;;4974281;28;20552;-81
2022/06/27 05:13:38;;;;;;;2.00;1.30;;;19.60;99.90;;;;;;4974119;28;20220;-81
2022/06/27 05:16:04;;;;;;;2.60;1.23;;;19.70;99.90;;;;;;4974158;28;20181;-80
2022/06/27 05:18:29;;;;;;;2.13;1.57;;;19.60;99.90;;;;;;4974107;28;20181;-81
2022/06/27 05:20:55;;;;;;;4.80;1.37;;;19.70;99.90;;;;;;4973782;28;20712;-81
2022/06/27 05:23:21;;;;;;;3.57;1.40;;;19.60;99.90;;;;;;4973943;28;20535;-82
2022/06/27 05:25:46;;;;;;;3.80;1.50;;;19.50;99.90;;;;;;4974045;28;20223;-82
2022/06/27 05:28:12;;;;;;;3.03;1.90;;;19.60;99.90;;;;;;4972856;28;20225;-82
2022/06/27 05:30:37;;;;;;;3.17;1.60;;;19.60;99.90;;;;;;4974069;28;20257;-82
2022/06/27 05:33:03;;;;;;;3.60;1.27;;;19.80;99.90;;;;;;4972683;28;20215;-82
2022/06/27 05:35:29;;;;;;;3.30;1.50;;;19.90;99.90;;;;;;4973633;28;20201;-82
2022/06/27 05:37:55;;;;;;;2.03;1.30;;;20.00;99.90;;;;;;4972770;28;20190;-82
2022/06/27 05:40:21;;;;;;;2.57;1.73;;;20.30;99.90;;;;;;4973902;28;20404;-82
2022/06/27 05:42:48;;;;;;;3.40;1.60;;;20.60;99.90;;;;;;4972711;28;20425;-83
2022/06/27 05:45:15;;;;;;;1.80;1.10;;;20.80;99.90;;;;;;4972775;28;20197;-83
2022/06/27 05:47:41;;;;;;;3.00;1.50;;;20.90;1.00;;;;;;4973831;28;20837;-83
2022/06/27 05:50:08;;;;;;;2.43;1.57;;;20.90;67.20;;;;;;4972300;28;20512;-82
2022/06/27 05:52:34;;;;;;;3.73;1.60;;;21.00;18.40;;;;;;4973635;28;20568;-82
2022/06/27 05:55:00;;;;;;;3.53;1.53;;;21.20;1.00;;;;;;4973845;28;20504;-82
2022/06/27 05:57:27;;;;;;;2.23;1.20;;;21.40;1.00;;;;;;4973724;28;20444;-82
2022/06/27 05:59:55;;;;;;;3.03;1.40;;;21.50;1.00;;;;;;4973740;28;20466;-81
2022/06/27 06:02:21;;;;;;;1.90;1.07;;;21.40;1.00;;;;;;4973971;28;20938;-82
2022/06/27 06:04:47;;;;;;;4.10;1.50;;;21.20;1.00;;;;;;4973367;28;20549;-81
2022/06/27 06:07:14;;;;;;;1.83;1.30;;;21.10;1.00;;;;;;4973737;28;20521;-81
2022/06/27 06:09:40;;;;;;;3.70;1.27;;;21.20;1.00;;;;;;4972283;28;20468;-81
2022/06/27 06:12:09;;;;;;;1.90;1.00;;;21.20;4.20;;;;;;4973608;28;20484;-82
2022/06/27 06:14:35;;;;;;;1.93;1.10;;;21.20;1.00;;;;;;4973620;28;20409;-81
2022/06/27 06:17:04;;;;;;;5.13;1.87;;;21.30;74.00;;;;;;4973626;28;20599;-81
2022/06/27 06:19:31;;;;;;;2.70;2.37;;;21.30;18.70;;;;;;4976056;28;20418;-81
2022/06/27 06:21:57;;;;;;;4.83;1.50;;;21.30;34.40;;;;;;4977064;28;20418;-81
2022/06/27 06:24:24;;;;;;;2.40;1.37;;;21.30;50.50;;;;;;4976986;28;20422;-81
2022/06/27 06:26:52;;;;;;;4.17;1.17;;;21.40;29.20;;;;;;4976956;28;20422;-81
2022/06/27 06:29:18;;;;;;;4.83;2.07;;;21.60;25.20;;;;;;4976737;28;20426;-81
2022/06/27 06:31:45;;;;;;;3.67;2.20;;;21.70;1.00;;;;;;4976743;28;20418;-81
2022/06/27 06:34:12;;;;;;;2.60;1.90;;;21.80;1.00;;;;;;4976485;28;20505;-80
2022/06/27 06:36:39;;;;;;;2.80;2.10;;;21.70;1.00;;;;;;4976781;28;20465;-81
2022/06/27 06:39:06;;;;;;;3.30;2.33;;;21.70;1.60;;;;;;4976804;28;20430;-81
2022/06/27 06:41:32;;;;;;;2.33;2.13;;;21.60;1.00;;;;;;4976806;28;20443;-81
2022/06/27 06:43:59;;;;;;;3.37;1.93;;;21.60;16.60;;;;;;4976607;28;20419;-81
2022/06/27 06:46:26;;;;;;;5.50;1.90;;;21.70;38.70;;;;;;4976665;28;20775;-81
2022/06/27 06:49:05;;;;;;;4.83;2.23;;;21.80;18.10;;;;;;4976555;28;20419;-80
2022/06/27 06:51:36;;;;;;;2.63;1.90;;;21.80;16.10;;;;;;4976241;28;20407;-79
2022/06/27 06:54:04;;;;;;;3.80;1.87;;;22.00;68.40;;;;;;4976453;28;20419;-80
2022/06/27 06:56:30;;;;;;;3.63;1.93;;;22.30;1.00;;;;;;4976464;28;21270;-80
2022/06/27 06:58:57;;;;;;;5.90;2.37;;;22.40;1.00;;;;;;4976267;28;20420;-80
2022/06/27 07:01:22;;;;;;;3.40;2.47;;;22.60;1.00;;;;;;4975319;28;20414;-80
2022/06/27 07:03:49;;;;;;;3.57;2.30;;;22.80;1.00;;;;;;4976303;28;20411;-80
2022/06/27 07:06:15;;;;;;;7.17;2.80;;;23.10;1.00;;;;;;4966437;28;20226;-80
2022/06/27 07:08:41;;;;;;;5.13;2.67;;;23.20;99.90;;;;;;4969726;28;20536;-80
2022/06/27 07:11:07;;;;;;;5.90;2.30;;;23.00;99.90;;;;;;4976146;28;20430;-80
2022/06/27 07:13:33;;;;;;;5.33;2.70;;;22.80;1.00;;;;;;4974839;28;20834;-80
2022/06/27 07:15:58;;;;;;;3.43;2.10;;;22.60;1.00;;;;;;4970522;28;20427;-80
2022/06/27 07:18:27;;;;;;;4.37;2.60;;;22.60;1.00;;;;;;4965783;28;20172;-80
2022/06/27 07:20:53;;;;;;;4.00;2.70;;;22.50;1.00;;;;;;4964383;28;20187;-80
2022/06/27 07:23:20;;;;;;;3.00;2.50;;;22.40;1.00;;;;;;4969817;28;20433;-79
2022/06/27 07:25:46;;;;;;;4.30;3.17;;;22.30;1.00;;;;;;4975980;28;20498;-79
2022/06/27 07:28:12;;;;;;;2.60;2.40;;;22.20;1.00;;;;;;4975856;28;20505;-80
2022/06/27 07:30:40;;;;;;;6.60;2.67;;;22.20;1.00;;;;;;4975057;28;20629;-80
2022/06/27 07:33:07;;;;;;;2.90;2.60;;;22.00;5.50;;;;;;4975851;28;20475;-80
2022/06/27 07:35:33;;;;;;;5.50;2.60;;;21.80;93.00;;;;;;4975480;28;20448;-80
2022/06/27 07:38:01;;;;;;;4.43;2.60;;;21.70;99.90;;;;;;4975669;28;20982;-79
2022/06/27 07:40:29;;;;;;;7.37;2.97;;;21.70;99.90;;;;;;4975807;28;20752;-79
2022/06/27 07:42:55;;;;;;;2.93;2.63;;;21.40;99.90;;;;;;4975147;28;20813;-80
2022/06/27 07:45:23;;;;;;;3.20;2.17;;;21.30;99.90;;;;;;4974228;28;20427;-79
2022/06/27 07:47:50;;;;;;;4.73;3.07;;;;;;;;;;4975504;28;20262;-81
2022/06/27 07:50:36;;;;;;;3.90;2.77;;;21.30;99.90;;;;;;4975201;28;20761;-81
2022/06/27 07:53:18;;;;;;;5.93;3.70;;;21.30;99.90;;;;;;4975228;28;20480;-81
2022/06/27 07:55:50;;;;;;;5.30;4.23;;;21.30;99.90;;;;;;4980335;28;20418;-79
2022/06/27 07:58:18;;;;;;;6.27;4.73;;;21.30;99.90;;;;;;4979535;28;20438;-81
2022/06/27 08:00:45;;;;;;;6.80;5.97;;;21.30;99.90;;;;;;4975276;28;20830;-81
2022/06/27 08:05:57;;;;;;;7.77;4.80;;;21.30;99.90;;;;;;4974825;28;20416;-81
2022/06/27 08:08:23;;;;;;;5.60;3.80;;;21.40;99.90;;;;;;4974947;28;20439;-80
2022/06/27 08:10:52;;;;;;;9.43;6.33;;;21.60;99.90;;;;;;4975129;28;20736;-80
2022/06/27 08:13:19;;;;;;;7.00;4.43;;;21.80;99.90;;;;;;4973607;28;20955;-80
2022/06/27 08:15:47;;;;;;;5.93;3.70;;;22.00;99.90;;;;;;4974932;28;20422;-80
2022/06/27 08:18:13;;;;;;;6.63;4.90;;;22.30;99.90;;;;;;4974974;28;20450;-80
2022/06/27 08:20:40;;;;;;;6.27;5.27;;;22.60;30.80;;;;;;4974634;28;20418;-80
2022/06/27 08:23:07;;;;;;;5.37;4.63;;;22.50;1.00;;;;;;4974917;28;20430;-80
2022/06/27 08:25:34;;;;;;;9.50;5.00;;;22.60;45.20;;;;;;4974673;28;20411;-80
2022/06/27 08:28:00;;;;;;;5.60;4.90;;;22.90;9.50;;;;;;4974662;28;20926;-80
2022/06/27 08:30:27;;;;;;;8.23;5.60;;;22.90;1.00;;;;;;4974702;28;20419;-80
2022/06/27 08:32:56;;;;;;;6.93;5.57;;;23.00;1.00;;;;;;4974613;28;20547;-80
2022/06/27 08:35:23;;;;;;;6.13;4.70;;;23.00;1.00;;;;;;4974248;28;20406;-80
2022/06/27 08:37:52;;;;;;;7.00;4.00;;;22.80;1.00;;;;;;4974649;28;20777;-80
2022/06/27 08:40:19;;;;;;;4.90;3.70;;;22.90;1.00;;;;;;4974572;28;20472;-80
2022/06/27 08:42:45;;;;;;;5.90;5.40;;;23.10;1.00;;;;;;4974589;28;20775;-80
2022/06/27 08:45:14;;;;;;;5.90;4.90;;;23.10;1.00;;;;;;4974397;28;20446;-81
2022/06/27 08:47:41;;;;;;;6.17;5.57;;;22.90;1.00;;;;;;4974401;28;20258;-80
2022/06/27 08:50:14;;;;;;;7.57;6.00;;;22.80;1.80;;;;;;4974079;28;20762;-80
2022/06/27 08:52:40;;;;;;;7.63;5.47;;;22.60;55.20;;;;;;4974313;28;20841;-80
2022/06/27 08:55:09;;;;;;;7.07;6.27;;;22.30;99.90;;;;;;4974427;28;20505;-80
2022/06/27 08:57:36;;;;;;;8.60;6.20;;;22.20;99.90;;;;;;4973076;28;20836;-80
2022/06/27 09:00:06;;;;;;;7.23;6.27;;;21.80;99.90;;;;;;4974347;28;20910;-80
2022/06/27 09:02:36;;;;;;;4.93;4.43;;;21.60;99.90;;;;;;4974236;28;20538;-80
2022/06/27 09:05:03;;;;;;;5.73;5.20;;;21.40;99.90;;;;;;4974057;28;20418;-80
2022/06/27 09:07:48;;;;;;;8.70;5.73;;;21.50;99.90;;;;;;4974312;28;20422;-80
2022/06/27 09:10:28;;;;;;;9.87;4.83;;;21.80;99.90;;;;;;4974097;28;20481;-80
2022/06/27 09:12:56;;;;;;;7.30;5.50;;;22.00;99.90;;;;;;4974087;28;20569;-80
2022/06/27 09:15:25;;;;;;;8.87;6.13;;;;;;;;;;4974134;28;20421;-80
2022/06/27 09:18:05;;;;;;;10.07;6.50;;;22.30;43.30;;;;;;4974172;28;20959;-80
2022/06/27 09:20:47;;;;;;;7.80;5.50;;;;;;;;;;4973803;28;20417;-80
2022/06/27 09:23:32;;;;;;;6.50;5.90;;;22.50;45.00;;;;;;4974193;28;20894;-80
2022/06/27 09:26:22;;;;;;;6.90;5.53;;;22.60;16.80;;;;;;4974083;28;20426;-80
2022/06/27 09:29:04;;;;;;;8.67;5.43;;;22.70;1.40;;;;;;4986496;28;20501;-80
2022/06/27 09:31:35;;;;;;;9.43;4.60;;;22.80;9.30;;;;;;4974029;28;20418;-80
2022/06/27 09:34:14;;;;;;;6.63;5.47;;;23.00;1.00;;;;;;4973694;28;20458;-80
2022/06/27 09:36:57;;;;;;;7.30;6.60;;;22.90;1.00;;;;;;4974062;28;20769;-80
2022/06/27 09:39:33;;;;;;;7.60;6.90;;;22.70;13.60;;;;;;4974049;28;20407;-80
2022/06/27 09:42:11;;;;;;;7.93;5.77;;;22.60;1.00;;;;;;4974063;28;20468;-80
2022/06/27 09:44:41;;;;;;;8.43;6.90;;;22.50;62.00;;;;;;4974005;28;20407;-80
2022/06/27 09:47:20;;;;;;;13.67;7.67;;;22.60;42.40;;;;;;4973826;28;20937;-80
2022/06/27 09:49:50;;;;;;;11.57;8.47;;;22.80;1.00;;;;;;4974008;28;20426;-80
2022/06/27 09:52:17;;;;;;;8.33;7.53;;;23.00;1.00;;;;;;4973777;28;20461;-80
2022/06/27 09:54:46;;;;;;;7.70;6.73;;;23.90;1.00;;;;;;4977272;28;20431;-80
2022/06/27 09:57:16;;;;;;;10.30;6.73;;;24.90;99.90;;;;;;4977563;28;20490;-80
2022/06/27 09:59:45;;;;;;;8.33;6.40;;;;;;;;;;4977488;28;20511;-80
2022/06/27 10:02:13;;;;;;;11.90;7.60;;;27.00;1.00;;;;;;4977428;28;20404;-80
2022/06/27 10:04:42;;;;;;;8.80;7.17;;;27.20;99.90;;;;;;4977027;28;20423;-82
2022/06/27 10:07:12;;;;;;;7.53;6.60;;;27.30;99.90;;;;;;4976112;28;20423;-81
2022/06/27 10:09:38;;;;;;;7.53;6.43;;;28.20;99.90;;;;;;4975758;28;20647;-82
2022/06/27 10:12:23;;;;;;;10.00;7.77;;;;;;;;;;4975960;28;20459;-82
2022/06/27 10:15:09;;;;;;;8.80;7.90;;;27.60;99.90;;;;;;4977148;28;20773;-82
2022/06/27 10:17:37;;;;;;;9.73;8.90;;;27.20;99.90;;;;;;4988369;28;20416;-82
2022/06/27 10:20:09;;;;;;;11.10;9.10;;;26.40;99.90;;;;;;4976772;28;20915;-81
2022/06/27 10:22:35;;;;;;;10.40;9.50;;;25.60;99.90;;;;;;4977109;28;20825;-82
2022/06/27 10:25:25;;;;;;;9.67;8.70;;;25.00;1.00;;;;;;4977048;28;20499;-82
2022/06/27 10:28:24;;;;;;;9.70;8.80;;;24.80;99.90;;;;;;4977073;28;20176;-82
2022/06/27 10:31:00;;;;;;;10.50;9.50;;;24.80;99.90;;;;;;4975721;28;20423;-82
2022/06/27 10:33:26;;;;;;;11.77;10.70;;;;;;;;;;4976903;28;20554;-81
2022/06/27 10:35:55;;;;;;;12.53;11.23;;;;;;;;;;4975282;28;20543;-80
2022/06/27 10:38:24;;;;;;;10.67;9.67;;;;;;;;;;4976869;28;20408;-80
2022/06/27 10:40:50;;;;;;;13.50;11.80;;;;;;;;;;4976820;28;20471;-81
2022/06/27 10:43:35;;;;;;;13.53;12.37;;;;;;;;;;4976744;28;20439;-81
2022/06/27 10:46:20;;;;;;;13.50;10.40;;;24.90;1.00;;;;;;4976778;28;20754;-81
2022/06/27 10:48:55;;;;;;;11.87;10.47;;;24.90;99.90;;;;;;4976127;28;20432;-81
2022/06/27 10:51:26;;;;;;;13.57;12.30;;;25.00;61.50;;;;;;4972572;28;20431;-82
2022/06/27 10:54:12;;;;;;;11.20;10.20;;;25.00;1.00;;;;;;4957057;28;20563;-81
2022/06/27 10:56:52;;;;;;;12.87;11.37;;;25.30;1.00;;;;;;4955599;28;20451;-82
2022/06/27 10:59:17;;;;;;;10.73;9.63;;;26.60;99.90;;;;;;4955861;28;20577;-82
2022/06/27 11:02:02;;;;;;;12.33;11.23;;;28.00;1.00;;;;;;4955873;29;20517;-82
2022/06/27 11:04:31;;;;;;;12.50;11.27;;;28.30;99.90;;;;;;4955772;28;20181;-83
2022/06/27 11:07:03;;;;;;;9.73;8.93;;;27.70;99.90;;;;;;4956979;28;20412;-83
2022/06/27 11:09:44;;;;;;;11.10;9.63;;;27.30;99.90;;;;;;4956861;29;20459;-83
2022/06/27 11:12:16;;;;;;;10.23;9.07;;;27.50;99.90;;;;;;4956805;29;20503;-83
2022/06/27 11:14:57;;;;;;;12.27;10.73;;;27.70;99.90;;;;;;4956899;29;20424;-82
2022/06/27 11:17:42;;;;;;;11.10;10.13;;;28.00;99.90;;;;;;4956849;28;20427;-82
2022/06/27 11:20:23;;;;;;;11.70;10.70;;;27.80;99.90;;;;;;4956379;28;20435;-83
2022/06/27 11:23:00;;;;;;;11.00;9.73;;;27.60;99.90;;;;;;4955577;28;20439;-82
2022/06/27 11:25:28;;;;;;;12.17;11.07;;;27.50;99.90;;;;;;4956688;29;20414;-83
2022/06/27 11:27:55;;;;;;;12.30;10.90;;;;;;;;;;4956673;28;20549;-82
2022/06/27 11:33:30;;;;;;;10.73;9.63;;;25.40;1.00;;;;;;4956264;29;20507;-81
2022/06/27 11:35:56;;;;;;;12.40;11.17;;;25.90;1.00;;;;;;4956523;28;20415;-83
2022/06/27 11:38:27;;;;;;;13.00;11.57;;;25.60;99.90;;;;;;4956537;28;20413;-83
2022/06/27 11:41:11;;;;;;;11.43;10.40;;;25.10;99.90;;;;;;4956450;28;20211;-81
2022/06/27 11:43:56;;;;;;;12.57;11.37;;;24.60;99.90;;;;;;4956352;28;20413;-82
2022/06/27 11:46:28;;;;;;;14.10;12.83;;;24.20;1.00;;;;;;4956682;28;20404;-82
2022/06/27 11:48:59;;;;;;;11.50;10.50;;;23.80;99.90;;;;;;4955892;28;20437;-81
2022/06/27 11:51:27;;;;;;;14.20;13.00;;;23.80;99.90;;;;;;4956305;28;20417;-82
2022/06/27 11:53:55;;;;;;;14.87;13.47;;;23.60;99.90;;;;;;4954879;28;20420;-82
2022/06/27 11:56:26;;;;;;;16.57;14.47;;;23.40;1.00;;;;;;4956003;28;20421;-82
2022/06/27 11:58:52;;;;;;;16.47;14.77;;;23.10;1.00;;;;;;4956121;28;20427;-82
2022/06/27 12:01:19;;;;;;;15.17;13.67;;;22.80;1.00;;;;;;4955966;28;20421;-81
2022/06/27 12:04:09;;;;;;;18.77;17.03;;;22.70;1.00;;;;;;4955590;28;20471;-82
2022/06/27 12:06:49;;;;;;;15.97;14.37;;;22.50;1.00;;;;;;4955848;28;20415;-81
2022/06/27 12:09:16;;;;;;;18.73;16.87;;;22.60;1.00;;;;;;4960444;28;20454;-82
2022/06/27 12:12:02;;;;;;;17.80;16.10;;;22.90;1.00;;;;;;4964150;28;20427;-82
2022/06/27 12:14:29;;;;;;;17.13;15.60;;;23.20;1.00;;;;;;4964919;28;20490;-82
2022/06/27 12:16:59;;;;;;;18.63;16.70;;;23.40;1.00;;;;;;4962941;28;20765;-81
2022/06/27 12:19:26;;;;;;;18.07;16.47;;;23.50;1.00;;;;;;4963496;28;20404;-83
2022/06/27 12:21:53;;;;;;;19.00;17.20;;;24.70;95.90;;;;;;4965020;28;20954;-83
2022/06/27 12:24:19;;;;;;;17.10;15.50;;;24.40;1.00;;;;;;4963685;28;20495;-82
2022/06/27 12:26:48;;;;;;;17.57;15.97;;;23.90;99.90;;;;;;4962545;28;20424;-83
2022/06/27 12:29:14;;;;;;;18.50;16.73;;;23.60;99.90;;;;;;4964918;28;20423;-83
2022/06/27 12:31:40;;;;;;;19.53;17.67;;;23.30;1.00;;;;;;4963540;28;20427;-83
2022/06/27 12:34:06;;;;;;;19.67;17.83;;;22.90;1.00;;;;;;4963161;28;20668;-82
2022/06/27 12:36:33;;;;;;;18.67;16.67;;;23.10;1.00;;;;;;4964963;28;20852;-86
2022/06/27 12:39:03;;;;;;;20.90;18.93;;;23.00;1.00;;;;;;4963333;28;20572;-83
2022/06/27 12:41:29;;;;;;;19.67;17.97;;;22.60;1.00;;;;;;4965521;28;20513;-83
2022/06/27 12:44:01;;;;;;;17.37;15.67;;;22.50;1.00;;;;;;4960205;28;20623;-82
2022/06/27 12:46:26;;;;;;;16.07;14.47;;;22.40;1.00;;;;;;4962917;28;20175;-84
2022/06/27 12:48:55;;;;;;;15.93;14.43;;;22.50;1.00;;;;;;4964795;28;20929;-84
2022/06/27 12:51:21;;;;;;;16.83;15.23;;;22.60;1.00;;;;;;4963466;28;20171;-85
2022/06/27 12:53:47;;;;;;;14.70;13.20;;;23.00;1.00;;;;;;4963284;28;20835;-83
2022/06/27 12:56:14;;;;;;;13.53;12.20;;;23.30;1.00;;;;;;4964588;28;20502;-82
2022/06/27 12:58:39;;;;;;;13.90;12.60;;;23.30;99.90;;;;;;4963156;28;20258;-84
2022/06/27 13:01:06;;;;;;;12.63;11.53;;;23.70;99.90;;;;;;4963581;28;20816;-83
2022/06/27 13:03:32;;;;;;;11.27;10.07;;;24.40;96.90;;;;;;4964035;28;20235;-87